Time;durP1;ratioP1;P1;durP2;ratioP2;P2;SDS_P1;SDS_P2;PMS_P1;PMS_P2;Temp;Humidity;BMP_temperature;BMP_pressure;BME280_temperature;BME280_humidity;BME280_pressure;Samples;Min_cycle;Max_cycle;Signal;HPM_P1;HPM_P2
2023/01/27 00:02:17;;;;;;;18.97;12.43;;;2.70;1.00;;;;;;5041808;28;20213;-64
2023/01/27 00:04:43;;;;;;;25.33;12.83;;;2.60;1.00;;;;;;5045184;28;20226;-64
2023/01/27 00:07:08;;;;;;;25.93;12.50;;;2.50;1.00;;;;;;5058413;28;20189;-64
2023/01/27 00:09:34;;;;;;;25.90;12.87;;;2.40;1.00;;;;;;5041269;28;20608;-65
2023/01/27 00:14:43;;;;;;;24.77;13.60;;;2.50;1.00;;;;;;5041248;28;20195;-67
2023/01/27 00:17:09;;;;;;;25.33;13.13;;;2.40;1.00;;;;;;5038492;28;20456;-65
2023/01/27 00:19:35;;;;;;;20.40;13.07;;;2.50;1.00;;;;;;5034602;28;20198;-63
2023/01/27 00:24:44;;;;;;;20.93;11.93;;;2.70;1.00;;;;;;5038621;28;20213;-64
2023/01/27 00:27:11;;;;;;;21.60;12.00;;;2.70;1.00;;;;;;5043227;28;20969;-65
2023/01/27 00:29:38;;;;;;;19.30;11.43;;;2.80;1.00;;;;;;5039481;28;20205;-65
2023/01/27 00:34:48;;;;;;;24.67;12.73;;;2.90;1.00;;;;;;5030574;28;20445;-65
2023/01/27 00:37:14;;;;;;;22.40;12.23;;;2.90;1.00;;;;;;5033892;28;20448;-66
2023/01/27 00:39:40;;;;;;;25.40;13.43;;;2.90;1.00;;;;;;5034242;28;20245;-65
2023/01/27 00:42:06;;;;;;;26.43;13.33;;;2.80;1.00;;;;;;5037199;28;20930;-63
2023/01/27 00:44:31;;;;;;;21.30;12.70;;;3.10;1.00;;;;;;5035158;28;20457;-64
2023/01/27 00:46:57;;;;;;;20.00;12.57;;;2.90;1.00;;;;;;5040754;28;20574;-65
2023/01/27 00:49:23;;;;;;;18.83;11.53;;;2.90;1.00;;;;;;5041703;28;20190;-64
2023/01/27 00:51:49;;;;;;;24.80;14.80;;;2.90;1.00;;;;;;5048294;28;20228;-64
2023/01/27 00:54:15;;;;;;;26.10;13.30;;;2.80;1.00;;;;;;5042558;28;20477;-65
2023/01/27 00:56:41;;;;;;;27.10;13.50;;;2.60;1.00;;;;;;5044832;28;20205;-64
2023/01/27 00:59:06;;;;;;;22.20;13.10;;;2.50;1.00;;;;;;5045721;28;20802;-64
2023/01/27 01:01:32;;;;;;;26.50;13.37;;;2.60;1.00;;;;;;5040165;28;21158;-65
2023/01/27 01:03:59;;;;;;;20.23;12.60;;;2.40;1.00;;;;;;5045235;28;20199;-65
2023/01/27 01:06:25;;;;;;;22.40;12.60;;;2.40;1.00;;;;;;5046382;28;20451;-65
2023/01/27 01:08:51;;;;;;;25.30;12.13;;;2.50;1.00;;;;;;5048344;28;20522;-63
2023/01/27 01:11:19;;;;;;;21.80;13.90;;;2.40;1.00;;;;;;5037365;28;22449;-65
2023/01/27 01:13:45;;;;;;;20.70;13.13;;;2.50;1.00;;;;;;5039337;28;20539;-64
2023/01/27 01:16:20;;;;;;;19.37;12.07;;;2.40;1.00;;;;;;5038699;28;20453;-65
2023/01/27 01:18:46;;;;;;;20.83;11.60;;;2.40;1.00;;;;;;5042221;28;20771;-66
2023/01/27 01:21:12;;;;;;;18.83;11.07;;;2.40;1.00;;;;;;5042371;28;20482;-64
2023/01/27 01:23:42;;;;;;;19.43;11.77;;;2.40;1.00;;;;;;5038496;28;20781;-65
2023/01/27 01:26:09;;;;;;;19.60;10.90;;;2.30;1.00;;;;;;5043354;28;21031;-64
2023/01/27 01:28:35;;;;;;;22.70;11.87;;;2.30;1.00;;;;;;5045223;28;20808;-64
2023/01/27 01:31:10;;;;;;;19.07;11.37;;;2.40;1.00;;;;;;5044194;28;20533;-65
2023/01/27 01:33:35;;;;;;;22.10;12.57;;;2.40;1.00;;;;;;5041663;28;20703;-64
2023/01/27 01:36:06;;;;;;;22.37;12.73;;;2.50;1.00;;;;;;5043995;28;20455;-65
2023/01/27 01:38:31;;;;;;;19.50;11.27;;;2.40;1.00;;;;;;5043319;28;20212;-63
2023/01/27 01:40:57;;;;;;;24.10;12.50;;;2.50;1.00;;;;;;5043870;28;20443;-66
2023/01/27 01:43:25;;;;;;;16.37;10.67;;;2.40;1.00;;;;;;5039800;28;20190;-65
2023/01/27 01:45:52;;;;;;;16.33;10.50;;;2.40;1.00;;;;;;5047274;28;20232;-65
2023/01/27 01:48:22;;;;;;;18.37;10.60;;;2.40;1.00;;;;;;5047349;28;20441;-65
2023/01/27 01:50:56;;;;;;;18.97;10.93;;;2.50;1.00;;;;;;5042987;28;20450;-64
2023/01/27 01:53:28;;;;;;;19.80;10.80;;;2.50;1.00;;;;;;5044520;28;20582;-65
2023/01/27 01:55:59;;;;;;;20.80;12.40;;;2.50;1.00;;;;;;5039174;28;20443;-66
2023/01/27 01:58:26;;;;;;;16.47;10.40;;;2.50;1.00;;;;;;5045708;28;20439;-65
2023/01/27 02:00:53;;;;;;;17.30;11.00;;;2.50;1.00;;;;;;5043335;28;20447;-65
2023/01/27 02:03:19;;;;;;;17.30;11.33;;;2.60;1.00;;;;;;5040575;28;20451;-65
2023/01/27 02:05:46;;;;;;;19.13;10.70;;;2.70;1.00;;;;;;5043100;28;20456;-65
2023/01/27 02:08:34;;;;;;;17.23;10.80;;;2.50;1.00;;;;;;5042860;28;20441;-65
2023/01/27 02:11:00;;;;;;;16.70;9.67;;;2.50;1.00;;;;;;5044911;28;20458;-65
2023/01/27 02:13:25;;;;;;;16.10;9.73;;;2.60;1.00;;;;;;5041168;28;20466;-65
2023/01/27 02:15:53;;;;;;;15.43;9.50;;;2.60;1.00;;;;;;5041519;28;21145;-65
2023/01/27 02:18:19;;;;;;;16.93;11.37;;;2.60;1.00;;;;;;5032391;28;20190;-64
2023/01/27 02:20:53;;;;;;;18.60;11.27;;;2.70;1.00;;;;;;5031886;28;20449;-64
2023/01/27 02:24:11;;;;;;;15.90;9.90;;;2.60;1.00;;;;;;5033129;28;21014;-65
2023/01/27 02:26:42;;;;;;;18.13;10.13;;;2.40;1.00;;;;;;5033847;28;20493;-66
2023/01/27 02:29:13;;;;;;;15.93;9.23;;;2.50;1.00;;;;;;5032082;28;20454;-64
2023/01/27 02:31:39;;;;;;;18.70;11.03;;;2.40;1.00;;;;;;5035320;28;20471;-64
2023/01/27 02:34:11;;;;;;;17.37;10.50;;;2.40;1.00;;;;;;5029579;28;21009;-64
2023/01/27 02:36:48;;;;;;;20.13;10.63;;;2.50;1.00;;;;;;5041808;28;20479;-64
2023/01/27 02:39:16;;;;;;;16.93;10.37;;;2.60;1.00;;;;;;5047823;28;21006;-64
2023/01/27 02:42:03;;;;;;;17.03;10.53;;;2.50;1.00;;;;;;5048087;28;20444;-65
2023/01/27 02:44:28;;;;;;;17.40;10.10;;;2.60;1.00;;;;;;5048124;28;20549;-66
2023/01/27 02:46:54;;;;;;;22.17;12.40;;;2.50;1.00;;;;;;5046680;28;20557;-64
2023/01/27 02:49:20;;;;;;;24.07;12.57;;;2.50;1.00;;;;;;5043986;28;20189;-65
2023/01/27 02:51:45;;;;;;;21.43;11.10;;;2.60;1.00;;;;;;5041167;28;20700;-64
2023/01/27 02:54:11;;;;;;;18.40;11.40;;;2.50;1.00;;;;;;5043812;28;20202;-65
2023/01/27 02:56:37;;;;;;;20.03;11.93;;;2.50;1.00;;;;;;5038222;28;20563;-66
2023/01/27 02:59:03;;;;;;;22.10;13.03;;;2.60;1.00;;;;;;5044376;28;20209;-65
2023/01/27 03:01:31;;;;;;;22.77;13.77;;;2.60;1.00;;;;;;5031039;28;20460;-64
2023/01/27 03:03:57;;;;;;;23.60;12.97;;;2.70;1.00;;;;;;5043418;28;20188;-64
2023/01/27 03:06:22;;;;;;;19.27;12.77;;;2.80;1.00;;;;;;5044316;28;20452;-65
2023/01/27 03:08:48;;;;;;;19.77;12.20;;;2.70;1.00;;;;;;5037409;28;20489;-65
2023/01/27 03:12:18;;;;;;;25.47;12.70;;;2.70;1.00;;;;;;5042039;28;20636;-62
2023/01/27 03:14:00;;;;;;;23.40;12.83;;;2.80;1.00;;;;;;5039788;28;20197;-65
2023/01/27 03:19:09;;;;;;;20.10;11.60;;;2.50;1.00;;;;;;5039540;28;20205;-64
2023/01/27 03:21:35;;;;;;;24.90;13.73;;;2.60;1.00;;;;;;5042980;28;20448;-64
2023/01/27 03:24:00;;;;;;;25.90;13.73;;;2.40;1.00;;;;;;5048257;28;20182;-65
2023/01/27 03:26:26;;;;;;;27.10;13.90;;;2.40;1.00;;;;;;5043151;28;20268;-65
2023/01/27 03:29:53;;;;;;;24.83;13.27;;;2.50;1.00;;;;;;5045645;28;20186;-64
2023/01/27 03:31:37;;;;;;;26.77;13.37;;;2.40;1.00;;;;;;5043401;28;20192;-65
2023/01/27 03:34:03;;;;;;;25.33;12.73;;;2.40;1.00;;;;;;5040082;28;20933;-65
2023/01/27 03:47:25;;;;;;;31.23;14.40;;;2.30;1.00;;;;;;5044360;28;20542;-64
2023/01/27 03:49:51;;;;;;;20.60;11.73;;;2.40;1.00;;;;;;5047312;28;20880;-65
2023/01/27 03:52:17;;;;;;;27.47;13.03;;;2.30;1.00;;;;;;5046592;28;20235;-64
2023/01/27 03:54:42;;;;;;;24.77;11.80;;;2.40;1.00;;;;;;5046324;28;20194;-65
2023/01/27 03:57:08;;;;;;;24.23;11.80;;;2.50;1.00;;;;;;5043726;28;20209;-65
2023/01/27 03:59:34;;;;;;;24.87;11.57;;;2.40;1.00;;;;;;5046724;28;20197;-65
2023/01/27 04:07:34;;;;;;;19.13;10.80;;;2.20;1.00;;;;;;5047425;28;21324;-65
2023/01/27 04:09:59;;;;;;;24.17;11.60;;;2.30;1.00;;;;;;5048585;28;20930;-64
2023/01/27 04:12:25;;;;;;;24.17;10.60;;;2.40;1.00;;;;;;5043613;28;20581;-65
2023/01/27 04:14:51;;;;;;;22.80;11.00;;;2.30;1.00;;;;;;5046308;28;20190;-64
2023/01/27 04:17:18;;;;;;;27.87;11.40;;;2.40;1.00;;;;;;5047647;28;20186;-65
2023/01/27 04:19:45;;;;;;;20.93;11.27;;;2.50;1.00;;;;;;5046971;28;20445;-65
2023/01/27 04:22:12;;;;;;;17.63;9.63;;;2.50;1.00;;;;;;5047032;28;20451;-65
2023/01/27 04:24:37;;;;;;;21.40;11.10;;;2.50;1.00;;;;;;5043094;28;20464;-65
2023/01/27 04:27:05;;;;;;;20.27;10.30;;;2.70;1.00;;;;;;5049915;28;20456;-64
2023/01/27 04:29:34;;;;;;;21.10;10.93;;;2.60;1.00;;;;;;5040567;28;20240;-67
2023/01/27 04:32:00;;;;;;;21.80;11.30;;;2.60;1.00;;;;;;5045322;28;20482;-65
2023/01/27 04:34:26;;;;;;;17.53;10.07;;;2.60;1.00;;;;;;5047497;28;20984;-64
2023/01/27 04:36:53;;;;;;;19.20;9.37;;;2.60;1.00;;;;;;5043683;28;20448;-65
2023/01/27 04:39:19;;;;;;;23.20;11.53;;;2.50;1.00;;;;;;5057038;28;20452;-66
2023/01/27 04:41:45;;;;;;;27.80;11.23;;;2.60;1.00;;;;;;5049791;28;20447;-64
2023/01/27 04:44:11;;;;;;;20.97;10.40;;;2.60;1.00;;;;;;5046197;28;20646;-65
2023/01/27 04:46:38;;;;;;;22.90;11.33;;;2.50;1.00;;;;;;5043494;28;20455;-64
2023/01/27 04:49:04;;;;;;;24.87;11.07;;;2.40;1.00;;;;;;5044672;28;20957;-64
2023/01/27 04:51:30;;;;;;;21.40;10.10;;;2.30;1.00;;;;;;5048061;28;20475;-65
2023/01/27 04:53:56;;;;;;;23.83;11.50;;;2.20;1.00;;;;;;5041760;28;20693;-64
2023/01/27 04:56:23;;;;;;;21.93;10.47;;;2.30;1.00;;;;;;5037295;28;20530;-64
2023/01/27 04:58:49;;;;;;;21.87;11.40;;;2.20;1.00;;;;;;5039382;28;20666;-64
2023/01/27 05:01:15;;;;;;;20.80;10.63;;;2.10;1.00;;;;;;5038619;28;20448;-65
2023/01/27 05:03:40;;;;;;;19.33;10.10;;;2.30;1.00;;;;;;5045419;28;20718;-65
2023/01/27 05:06:07;;;;;;;25.83;11.73;;;2.20;1.00;;;;;;5044987;28;20515;-65
2023/01/27 05:08:33;;;;;;;23.97;11.83;;;2.00;1.00;;;;;;5040479;28;20243;-64
2023/01/27 05:10:58;;;;;;;28.00;11.53;;;2.00;1.00;;;;;;5045595;28;20841;-58
2023/01/27 05:13:24;;;;;;;29.63;12.40;;;2.10;1.00;;;;;;5061544;28;20269;-61
2023/01/27 05:15:49;;;;;;;28.40;12.63;;;2.10;1.00;;;;;;5065116;28;20552;-60
2023/01/27 05:18:15;;;;;;;23.27;12.07;;;2.10;1.00;;;;;;5062044;28;20235;-62
2023/01/27 05:20:40;;;;;;;22.43;11.20;;;2.10;1.00;;;;;;5056919;28;20555;-61
2023/01/27 05:25:50;;;;;;;23.37;11.90;;;1.90;1.00;;;;;;5044667;28;20201;-65
2023/01/27 05:28:16;;;;;;;24.03;10.47;;;2.00;1.00;;;;;;5050791;28;20440;-64
2023/01/27 05:30:42;;;;;;;26.00;12.27;;;1.90;1.00;;;;;;5047180;28;20210;-65
2023/01/27 05:33:09;;;;;;;21.53;12.17;;;2.00;1.00;;;;;;5050299;28;20198;-64
2023/01/27 05:35:35;;;;;;;23.73;12.57;;;2.10;1.00;;;;;;5043771;28;20204;-65
2023/01/27 05:38:01;;;;;;;23.43;10.60;;;2.10;1.00;;;;;;5050122;28;20523;-64
2023/01/27 05:40:27;;;;;;;27.43;11.83;;;2.10;1.00;;;;;;5045603;28;21020;-64
2023/01/27 05:42:52;;;;;;;25.83;12.60;;;2.10;1.00;;;;;;5048048;28;20454;-64
2023/01/27 05:45:18;;;;;;;20.93;10.43;;;2.00;1.00;;;;;;5048120;28;20201;-65
2023/01/27 05:47:49;;;;;;;23.13;10.67;;;2.20;1.00;;;;;;5045976;28;20456;-64
2023/01/27 05:50:15;;;;;;;24.00;10.93;;;2.30;1.00;;;;;;5044070;28;20189;-64
2023/01/27 05:52:40;;;;;;;22.50;10.50;;;2.20;1.00;;;;;;5047397;28;20571;-64
2023/01/27 05:55:06;;;;;;;29.03;13.40;;;2.20;1.00;;;;;;5048663;28;20527;-64
2023/01/27 05:57:32;;;;;;;25.00;12.03;;;2.20;1.00;;;;;;5047922;28;20666;-63
2023/01/27 05:59:57;;;;;;;27.63;11.43;;;2.20;1.00;;;;;;5043030;28;20452;-64
2023/01/27 06:02:23;;;;;;;19.27;10.50;;;2.20;1.00;;;;;;5045199;28;20190;-64
2023/01/27 06:04:49;;;;;;;24.40;10.23;;;2.30;1.00;;;;;;5044528;28;20272;-64
2023/01/27 06:07:14;;;;;;;24.50;11.83;;;2.30;1.00;;;;;;5041734;28;20215;-65
2023/01/27 06:09:40;;;;;;;22.93;11.07;;;2.50;1.00;;;;;;5046517;28;20193;-65
2023/01/27 06:12:05;;;;;;;26.20;12.30;;;2.30;1.00;;;;;;5044868;28;20259;-64
2023/01/27 06:14:31;;;;;;;27.77;12.63;;;2.30;1.00;;;;;;5049591;28;20713;-63
2023/01/27 06:16:58;;;;;;;23.00;10.93;;;2.30;1.00;;;;;;5045194;28;20186;-63
2023/01/27 06:19:24;;;;;;;25.83;10.33;;;2.20;1.00;;;;;;5047179;28;20493;-64
2023/01/27 06:21:50;;;;;;;26.00;10.60;;;2.20;1.00;;;;;;5047928;28;20450;-64
2023/01/27 06:24:15;;;;;;;23.60;11.00;;;2.30;1.00;;;;;;5043808;28;20197;-63
2023/01/27 06:26:41;;;;;;;28.30;12.90;;;2.50;1.00;;;;;;5045916;28;20275;-65
2023/01/27 06:29:06;;;;;;;18.47;10.70;;;2.60;1.00;;;;;;5047013;28;20189;-63
2023/01/27 06:31:32;;;;;;;24.83;12.83;;;2.60;1.00;;;;;;5043717;28;20593;-65
2023/01/27 06:33:58;;;;;;;20.97;12.07;;;2.60;1.00;;;;;;5044611;28;20190;-65
2023/01/27 06:36:23;;;;;;;18.37;9.10;;;2.40;1.00;;;;;;5045467;28;20268;-66
2023/01/27 06:38:50;;;;;;;24.53;10.70;;;2.30;1.00;;;;;;5046908;28;20204;-65
2023/01/27 06:41:15;;;;;;;26.23;14.83;;;2.40;1.00;;;;;;5047523;28;20225;-64
2023/01/27 06:43:41;;;;;;;20.23;11.23;;;2.50;1.00;;;;;;5049565;28;20836;-65
2023/01/27 06:46:07;;;;;;;22.90;12.10;;;2.50;1.00;;;;;;5047573;28;20198;-65
2023/01/27 06:48:33;;;;;;;22.60;11.30;;;2.60;1.00;;;;;;5048757;28;20684;-64
2023/01/27 06:50:58;;;;;;;20.47;9.80;;;2.70;1.00;;;;;;5046761;28;20267;-65
2023/01/27 06:53:24;;;;;;;20.83;10.30;;;2.60;1.00;;;;;;5048910;28;20965;-64
2023/01/27 06:55:58;;;;;;;21.20;11.97;;;2.60;1.00;;;;;;5045226;28;20455;-64
2023/01/27 06:58:23;;;;;;;15.73;9.33;;;2.60;1.00;;;;;;5047040;28;20586;-64
2023/01/27 07:00:49;;;;;;;19.17;10.77;;;2.60;1.00;;;;;;5043524;28;20499;-65
2023/01/27 07:03:15;;;;;;;24.03;13.73;;;2.40;1.00;;;;;;5046404;28;20952;-64
2023/01/27 07:05:41;;;;;;;22.23;12.67;;;2.30;1.00;;;;;;5048274;28;20456;-64
2023/01/27 07:08:07;;;;;;;22.97;12.30;;;2.30;1.00;;;;;;5060546;28;20189;-64
2023/01/27 07:10:32;;;;;;;16.40;9.97;;;2.30;1.00;;;;;;5050159;28;20452;-64
2023/01/27 07:13:10;;;;;;;17.73;11.17;;;2.20;1.00;;;;;;5053181;28;20471;-65
2023/01/27 07:15:36;;;;;;;16.50;10.10;;;2.20;1.00;;;;;;5045573;28;20550;-63
2023/01/27 07:18:02;;;;;;;14.50;8.60;;;2.20;1.00;;;;;;5049062;28;20560;-65
2023/01/27 07:20:29;;;;;;;15.50;9.73;;;2.10;1.00;;;;;;5046901;28;20452;-64
2023/01/27 07:22:59;;;;;;;18.50;11.57;;;1.90;1.00;;;;;;5050293;28;20447;-65
2023/01/27 07:25:26;;;;;;;16.17;9.60;;;2.00;1.00;;;;;;5050889;28;20551;-66
2023/01/27 07:27:52;;;;;;;18.70;11.03;;;2.00;1.00;;;;;;5059484;28;20521;-65
2023/01/27 07:30:18;;;;;;;23.50;12.03;;;2.10;1.00;;;;;;5051748;28;20453;-64
2023/01/27 07:32:43;;;;;;;17.10;10.47;;;2.20;1.00;;;;;;5062880;28;20481;-64
2023/01/27 07:35:09;;;;;;;25.50;15.23;;;2.30;1.00;;;;;;5049839;28;20549;-65
2023/01/27 07:37:35;;;;;;;18.63;11.53;;;2.30;1.00;;;;;;5046868;28;20258;-64
2023/01/27 07:40:00;;;;;;;22.43;11.90;;;2.40;1.00;;;;;;5047009;28;20239;-64
2023/01/27 07:42:26;;;;;;;23.70;13.00;;;2.40;1.00;;;;;;5044936;28;20188;-65
2023/01/27 07:44:52;;;;;;;20.43;13.07;;;2.40;1.00;;;;;;5045947;28;20244;-65
2023/01/27 07:47:17;;;;;;;16.30;11.00;;;2.50;1.00;;;;;;5046291;28;20826;-64
2023/01/27 07:49:43;;;;;;;18.20;9.73;;;2.60;1.00;;;;;;5046301;28;20190;-65
2023/01/27 07:52:08;;;;;;;19.80;11.33;;;2.70;1.00;;;;;;5045123;28;20239;-65
2023/01/27 07:54:34;;;;;;;15.70;10.00;;;2.60;1.00;;;;;;5044289;28;20742;-64
2023/01/27 07:57:00;;;;;;;18.47;10.57;;;2.40;1.00;;;;;;5043939;28;20196;-64
2023/01/27 07:59:26;;;;;;;19.90;11.07;;;2.50;1.00;;;;;;5043860;28;20603;-65
2023/01/27 08:01:52;;;;;;;18.43;10.93;;;2.70;1.00;;;;;;5043812;28;21010;-65
2023/01/27 08:04:18;;;;;;;18.97;10.23;;;2.80;1.00;;;;;;5044705;28;20634;-65
2023/01/27 08:06:43;;;;;;;17.13;10.10;;;2.70;1.00;;;;;;5040699;28;20195;-65
2023/01/27 08:09:09;;;;;;;21.90;11.30;;;2.70;1.00;;;;;;5042872;28;20198;-66
2023/01/27 08:11:35;;;;;;;21.70;10.87;;;2.70;1.00;;;;;;5043732;28;20209;-65
2023/01/27 08:14:01;;;;;;;18.53;11.10;;;2.70;1.00;;;;;;5047505;28;20195;-65
2023/01/27 08:16:26;;;;;;;21.33;11.57;;;2.80;1.00;;;;;;5041564;28;20447;-66
2023/01/27 08:18:53;;;;;;;24.03;12.03;;;3.00;1.00;;;;;;5041475;28;20218;-65
2023/01/27 08:21:19;;;;;;;21.00;12.17;;;2.90;1.00;;;;;;5049062;28;20186;-65
2023/01/27 08:23:45;;;;;;;20.37;12.03;;;2.90;1.00;;;;;;5057512;28;20444;-65
2023/01/27 08:26:10;;;;;;;18.00;10.90;;;2.90;1.00;;;;;;5040461;28;20834;-64
2023/01/27 08:28:37;;;;;;;19.03;11.40;;;3.00;1.00;;;;;;5047782;28;20311;-65
2023/01/27 08:31:03;;;;;;;21.20;12.00;;;3.00;1.00;;;;;;5048021;28;20611;-65
2023/01/27 08:33:29;;;;;;;17.53;11.00;;;2.90;1.00;;;;;;5050541;28;20566;-65
2023/01/27 08:35:55;;;;;;;17.30;10.03;;;2.90;1.00;;;;;;5047266;28;20555;-66
2023/01/27 08:38:20;;;;;;;17.30;10.40;;;2.90;1.00;;;;;;5051384;28;20186;-65
2023/01/27 08:40:46;;;;;;;13.13;9.07;;;2.90;1.00;;;;;;5051851;28;20196;-65
2023/01/27 08:43:14;;;;;;;14.03;9.03;;;3.10;1.00;;;;;;5051342;28;20186;-65
2023/01/27 08:45:40;;;;;;;12.13;8.27;;;3.00;1.00;;;;;;5048061;28;20531;-64
2023/01/27 08:48:05;;;;;;;14.73;10.20;;;2.90;1.00;;;;;;5050857;28;20540;-66
2023/01/27 08:50:31;;;;;;;13.03;8.73;;;3.00;1.00;;;;;;5050345;28;20271;-64
2023/01/27 08:52:58;;;;;;;11.50;8.57;;;3.00;1.00;;;;;;5050982;28;20653;-65
2023/01/27 08:55:31;;;;;;;13.23;9.17;;;2.90;1.00;;;;;;5054647;28;20467;-66
2023/01/27 08:57:58;;;;;;;11.40;8.43;;;3.20;1.00;;;;;;5049218;28;20995;-66
2023/01/27 09:00:23;;;;;;;14.80;8.90;;;2.90;1.00;;;;;;5048281;28;20447;-65
2023/01/27 09:02:52;;;;;;;14.73;9.90;;;2.90;1.00;;;;;;5048450;28;20967;-64
2023/01/27 09:05:19;;;;;;;15.07;9.63;;;2.90;1.00;;;;;;5051223;28;20235;-66
2023/01/27 09:07:45;;;;;;;11.90;8.90;;;2.90;1.00;;;;;;5050797;28;20494;-65
2023/01/27 09:10:11;;;;;;;14.20;9.87;;;2.80;1.00;;;;;;5050893;28;20451;-66
2023/01/27 09:12:37;;;;;;;15.83;8.43;;;2.80;1.00;;;;;;5050769;28;20480;-66
2023/01/27 09:15:03;;;;;;;14.30;9.73;;;2.90;1.00;;;;;;5049259;28;20452;-66
2023/01/27 09:17:28;;;;;;;13.30;8.87;;;3.00;1.00;;;;;;5051379;28;20190;-65
2023/01/27 09:19:54;;;;;;;15.00;9.90;;;3.20;1.00;;;;;;5053561;28;20531;-65
2023/01/27 09:22:19;;;;;;;12.40;9.27;;;3.10;1.00;;;;;;5064214;28;20193;-65
2023/01/27 09:24:45;;;;;;;14.00;9.70;;;3.20;1.00;;;;;;5059302;28;20207;-64
2023/01/27 09:27:11;;;;;;;15.00;9.77;;;3.30;1.00;;;;;;5050709;28;20267;-63
2023/01/27 09:29:37;;;;;;;15.23;9.87;;;3.20;1.00;;;;;;5055828;28;20190;-64
2023/01/27 09:32:03;;;;;;;15.03;9.77;;;4.20;1.00;;;;;;5052211;28;20540;-65
2023/01/27 09:34:29;;;;;;;15.50;9.80;;;3.30;1.00;;;;;;5049528;28;20458;-65
2023/01/27 09:36:59;;;;;;;15.70;9.77;;;3.20;1.00;;;;;;5064027;28;20186;-63
2023/01/27 09:39:26;;;;;;;16.70;10.53;;;3.00;1.00;;;;;;5065527;28;20832;-65
2023/01/27 09:41:59;;;;;;;14.00;8.80;;;3.10;1.00;;;;;;5061755;28;21146;-63
2023/01/27 09:44:56;;;;;;;14.97;9.23;;;3.20;1.00;;;;;;5054721;28;20922;-66
2023/01/27 09:47:45;;;;;;;18.57;9.23;;;3.40;1.00;;;;;;5042229;28;20605;-64
2023/01/27 09:50:13;;;;;;;12.67;8.30;;;3.40;1.00;;;;;;5052401;28;20521;-64
2023/01/27 09:52:54;;;;;;;17.00;10.80;;;3.40;1.00;;;;;;5049029;28;21123;-64
2023/01/27 09:55:37;;;;;;;14.50;10.27;;;3.50;1.00;;;;;;5060228;28;20459;-65
2023/01/27 09:58:18;;;;;;;13.60;9.40;;;3.60;1.00;;;;;;5051007;28;20472;-66
2023/01/27 10:01:12;;;;;;;14.30;10.03;;;3.60;1.00;;;;;;5048515;28;20779;-65
2023/01/27 10:03:48;;;;;;;14.17;9.70;;;3.60;1.00;;;;;;5052108;28;20448;-63
2023/01/27 10:06:48;;;;;;;17.00;10.80;;;3.70;1.00;;;;;;5045835;28;20821;-64
2023/01/27 10:09:37;;;;;;;17.13;11.47;;;3.70;1.00;;;;;;5052782;28;20459;-64
2023/01/27 10:12:33;;;;;;;15.90;11.23;;;3.60;1.00;;;;;;5050135;28;20516;-64
2023/01/27 10:15:38;;;;;;;18.30;10.83;;;3.20;1.00;;;;;;5049293;28;20454;-65
2023/01/27 10:18:14;;;;;;;18.67;12.17;;;3.20;1.00;;;;;;5055221;28;20440;-65
2023/01/27 10:21:05;;;;;;;21.20;13.47;;;3.20;1.00;;;;;;5054211;28;20447;-64
2023/01/27 10:24:02;;;;;;;20.50;12.70;;;3.30;1.00;;;;;;5058813;28;20445;-64
2023/01/27 10:26:41;;;;;;;18.40;11.53;;;3.50;1.00;;;;;;5053103;28;20902;-64
2023/01/27 10:29:44;;;;;;;15.97;10.97;;;3.70;1.00;;;;;;5050866;28;20435;-64
2023/01/27 10:32:25;;;;;;;17.67;11.67;;;3.60;1.00;;;;;;5067027;28;20516;-65
2023/01/27 10:35:11;;;;;;;18.27;10.73;;;3.40;1.00;;;;;;5056168;28;20447;-64
2023/01/27 10:37:47;;;;;;;18.40;11.07;;;3.50;1.00;;;;;;5049675;28;20810;-64
2023/01/27 10:40:45;;;;;;;19.80;11.30;;;3.60;1.00;;;;;;5057366;28;20789;-64
2023/01/27 10:43:28;;;;;;;15.00;10.23;;;3.70;1.00;;;;;;5068202;28;20912;-64
2023/01/27 10:46:20;;;;;;;20.87;11.30;;;3.70;1.00;;;;;;5058035;28;20439;-66
2023/01/27 10:49:13;;;;;;;20.30;12.77;;;3.60;1.00;;;;;;5049015;28;21203;-64
2023/01/27 10:51:48;;;;;;;20.60;12.63;;;3.70;1.00;;;;;;5044372;28;20483;-66
2023/01/27 10:54:20;;;;;;;19.70;12.20;;;3.70;1.00;;;;;;5056173;28;20464;-65
2023/01/27 10:56:51;;;;;;;22.57;11.73;;;3.60;1.00;;;;;;5060741;28;20511;-64
2023/01/27 10:59:24;;;;;;;20.83;13.20;;;3.60;1.00;;;;;;5059550;28;20447;-64
2023/01/27 11:01:54;;;;;;;22.30;13.00;;;3.50;1.00;;;;;;5054238;28;20440;-65
2023/01/27 11:04:44;;;;;;;22.07;14.27;;;3.40;1.00;;;;;;5052085;28;20442;-64
2023/01/27 11:07:16;;;;;;;21.30;12.63;;;3.40;1.00;;;;;;5057977;28;20741;-65
2023/01/27 11:09:51;;;;;;;20.70;12.30;;;3.50;1.00;;;;;;5054472;28;20571;-64
2023/01/27 11:12:22;;;;;;;22.40;12.63;;;3.50;1.00;;;;;;5054271;28;21035;-64
2023/01/27 11:14:50;;;;;;;21.73;13.20;;;3.40;1.00;;;;;;5053474;28;20456;-63
2023/01/27 11:17:43;;;;;;;19.47;12.63;;;3.30;1.00;;;;;;5059934;28;20996;-64
2023/01/27 11:20:33;;;;;;;20.80;12.93;;;3.30;1.00;;;;;;5064615;28;20450;-64
2023/01/27 11:23:08;;;;;;;24.13;14.00;;;3.30;1.00;;;;;;5050524;28;20964;-63
2023/01/27 11:26:07;;;;;;;23.13;13.20;;;2.90;1.00;;;;;;5048671;28;20546;-64
2023/01/27 11:29:00;;;;;;;26.80;13.67;;;2.90;1.00;;;;;;5048777;28;20448;-65
2023/01/27 11:31:55;;;;;;;26.93;15.10;;;3.00;1.00;;;;;;5056851;28;20926;-64
2023/01/27 11:34:29;;;;;;;21.40;13.73;;;3.20;1.00;;;;;;5048568;28;20808;-64
2023/01/27 11:36:55;;;;;;;27.60;14.80;;;3.20;1.00;;;;;;5054193;28;20437;-64
2023/01/27 11:39:20;;;;;;;26.30;14.20;;;3.20;1.00;;;;;;5061556;28;21135;-64
2023/01/27 11:41:57;;;;;;;25.07;13.50;;;3.30;1.00;;;;;;5049776;28;20643;-65
2023/01/27 11:44:33;;;;;;;26.60;15.50;;;3.40;1.00;;;;;;5045311;28;20185;-64
2023/01/27 11:47:01;;;;;;;27.13;15.73;;;3.40;1.00;;;;;;5060899;28;20513;-65
2023/01/27 11:49:38;;;;;;;28.57;13.53;;;3.40;1.00;;;;;;5043574;28;20446;-64
2023/01/27 11:52:16;;;;;;;26.50;14.67;;;3.40;1.00;;;;;;5046594;28;20563;-64
2023/01/27 11:54:46;;;;;;;26.07;14.20;;;3.40;1.00;;;;;;5063936;28;20451;-65
2023/01/27 11:57:19;;;;;;;26.53;14.47;;;3.50;1.00;;;;;;5047916;28;20442;-64
2023/01/27 11:59:47;;;;;;;27.10;15.00;;;3.60;1.00;;;;;;5048813;28;20482;-65
2023/01/27 12:02:33;;;;;;;29.83;15.10;;;3.50;1.00;;;;;;5046316;28;20446;-64
2023/01/27 12:05:14;;;;;;;31.63;17.23;;;3.40;1.00;;;;;;5050241;28;20443;-64
2023/01/27 12:07:43;;;;;;;27.73;16.20;;;3.40;1.00;;;;;;5050377;28;20481;-64
2023/01/27 12:10:33;;;;;;;24.23;14.47;;;3.60;1.00;;;;;;5058195;28;20456;-65
2023/01/27 12:13:19;;;;;;;30.60;16.70;;;3.60;1.00;;;;;;5052013;28;20854;-64
2023/01/27 12:16:00;;;;;;;28.67;16.50;;;3.50;1.00;;;;;;5054952;28;20439;-64
2023/01/27 12:18:31;;;;;;;25.47;15.17;;;3.40;1.00;;;;;;5056955;28;20977;-64
2023/01/27 12:21:06;;;;;;;27.43;15.37;;;3.30;1.00;;;;;;5059800;28;20449;-66
2023/01/27 12:23:39;;;;;;;23.27;14.43;;;3.40;1.00;;;;;;5060578;28;20458;-63
2023/01/27 12:26:10;;;;;;;28.37;15.13;;;3.50;1.00;;;;;;5055252;28;20453;-65
2023/01/27 12:28:45;;;;;;;24.03;13.90;;;3.50;1.00;;;;;;5068765;28;20447;-64
2023/01/27 12:31:16;;;;;;;24.00;13.93;;;3.50;1.00;;;;;;5061221;28;20813;-65
2023/01/27 12:33:50;;;;;;;29.00;16.27;;;3.60;1.00;;;;;;5054381;28;20483;-64
2023/01/27 12:36:21;;;;;;;26.70;14.20;;;3.50;1.00;;;;;;5070097;28;20599;-64
2023/01/27 12:38:51;;;;;;;28.60;15.40;;;3.50;1.00;;;;;;5048672;28;21106;-64
2023/01/27 12:41:23;;;;;;;26.73;14.30;;;3.30;1.00;;;;;;5061232;28;20455;-65
2023/01/27 12:43:50;;;;;;;25.47;15.40;;;3.20;1.00;;;;;;5067086;28;20442;-65
2023/01/27 12:46:21;;;;;;;27.00;15.47;;;3.20;1.00;;;;;;5063722;28;20647;-65
2023/01/27 12:48:50;;;;;;;26.60;15.33;;;3.40;1.00;;;;;;5053569;28;20448;-64
2023/01/27 12:51:35;;;;;;;25.20;14.70;;;3.60;1.00;;;;;;5056054;28;20974;-65
2023/01/27 12:54:33;;;;;;;29.43;15.83;;;3.70;1.00;;;;;;5046156;28;20972;-64
2023/01/27 12:57:13;;;;;;;28.73;15.80;;;3.70;1.00;;;;;;5028528;28;20782;-65
2023/01/27 12:59:50;;;;;;;27.40;15.50;;;3.70;1.00;;;;;;5057847;28;20971;-64
2023/01/27 13:02:22;;;;;;;26.97;15.60;;;3.70;1.00;;;;;;5061578;28;20462;-64
2023/01/27 13:05:00;;;;;;;23.13;14.00;;;3.80;1.00;;;;;;5051317;28;20506;-65
2023/01/27 13:07:29;;;;;;;26.50;14.37;;;3.80;1.00;;;;;;5051345;28;20888;-66
2023/01/27 13:10:01;;;;;;;23.27;14.47;;;3.80;1.00;;;;;;5049753;28;20448;-64
2023/01/27 13:12:48;;;;;;;29.10;15.87;;;3.80;1.00;;;;;;5062353;28;21401;-66
2023/01/27 13:15:18;;;;;;;21.93;13.57;;;4.00;1.00;;;;;;5048787;28;20455;-65
2023/01/27 13:17:47;;;;;;;21.60;12.37;;;4.10;1.00;;;;;;5048416;28;20784;-65
2023/01/27 13:20:38;;;;;;;19.73;12.50;;;4.30;1.00;;;;;;5056736;28;20449;-66
2023/01/27 13:23:24;;;;;;;18.77;11.47;;;4.30;1.00;;;;;;5056018;28;20443;-66
2023/01/27 13:26:10;;;;;;;17.97;11.50;;;4.20;1.00;;;;;;5047358;28;20566;-64
2023/01/27 13:28:44;;;;;;;17.80;11.30;;;4.20;1.00;;;;;;5061492;28;21931;-66
2023/01/27 13:31:18;;;;;;;20.07;11.90;;;4.20;1.00;;;;;;5049471;28;20518;-64
2023/01/27 13:33:54;;;;;;;17.90;11.80;;;4.20;1.00;;;;;;5049687;28;20464;-65
2023/01/27 13:36:38;;;;;;;17.20;11.57;;;4.20;1.00;;;;;;5048301;28;21068;-65